Time;durP1;ratioP1;P1;durP2;ratioP2;P2;SDS_P1;SDS_P2;PMS_P1;PMS_P2;Temp;Humidity;BMP_temperature;BMP_pressure;BME280_temperature;BME280_humidity;BME280_pressure;Samples;Min_cycle;Max_cycle;Signal;HPM_P1;HPM_P2
2022/09/04 00:01:48;;;;;;;1.98;1.05;;;13.40;99.90;;;;;;5049206;28;20064;-81
2022/09/04 00:04:55;;;;;;;2.70;1.15;;;13.90;99.90;;;;;;5050042;28;20060;-82
2022/09/04 00:07:34;;;;;;;2.30;1.00;;;14.10;99.90;;;;;;5051505;28;20103;-82
2022/09/04 00:10:36;;;;;;;1.42;0.95;;;;;;;;;;5053557;28;20029;-81
2022/09/04 00:13:06;;;;;;;2.90;1.50;;;;;;;;;;4988796;28;20038;-81
2022/09/04 00:15:38;;;;;;;1.25;0.85;;;14.00;99.90;;;;;;5037226;28;20413;-82
2022/09/04 00:18:09;;;;;;;1.67;0.93;;;;;;;;;;5051985;28;20033;-81
2022/09/04 00:20:56;;;;;;;2.08;1.23;;;13.80;99.90;;;;;;5044944;28;20029;-81
2022/09/04 00:23:57;;;;;;;1.70;0.75;;;14.10;99.90;;;;;;5052516;28;20048;-82
2022/09/04 00:26:48;;;;;;;2.05;1.10;;;14.20;99.90;;;;;;4987602;28;20042;-82
2022/09/04 00:29:29;;;;;;;1.23;0.73;;;13.90;99.90;;;;;;5050411;28;20155;-82
2022/09/04 00:32:22;;;;;;;1.95;0.90;;;14.00;99.90;;;;;;5050100;28;20094;-81
2022/09/04 00:35:16;;;;;;;3.20;1.30;;;14.40;99.90;;;;;;5018327;28;20041;-81
2022/09/04 00:37:52;;;;;;;2.92;1.35;;;13.90;99.90;;;;;;5038176;28;20065;-81
2022/09/04 00:40:36;;;;;;;3.13;1.20;;;14.30;99.90;;;;;;5053257;28;20094;-82
2022/09/04 00:43:23;;;;;;;3.25;1.35;;;14.10;99.90;;;;;;5047663;28;20103;-81
2022/09/04 00:46:12;;;;;;;2.45;1.25;;;14.10;99.90;;;;;;5053289;28;20037;-81
2022/09/04 00:48:50;;;;;;;1.73;1.10;;;14.30;99.90;;;;;;5051887;28;20148;-83
2022/09/04 00:51:21;;;;;;;8.75;1.23;;;13.90;99.90;;;;;;5050615;28;20033;-81
2022/09/04 00:53:50;;;;;;;2.03;1.02;;;;;;;;;;5050807;28;20075;-82
2022/09/04 00:56:34;;;;;;;1.35;0.93;;;;;;;;;;5051227;28;20079;-82
2022/09/04 00:59:07;;;;;;;2.75;1.45;;;14.00;99.90;;;;;;5050182;28;20095;-81
2022/09/04 01:01:33;;;;;;;2.08;1.10;;;14.10;99.90;;;;;;5047780;28;20045;-82
2022/09/04 01:04:36;;;;;;;1.80;1.10;;;14.20;99.90;;;;;;5050648;28;20497;-81
2022/09/04 01:07:02;;;;;;;3.10;0.95;;;;;;;;;;5047867;28;20021;-83
2022/09/04 01:09:42;;;;;;;2.35;0.95;;;14.20;99.90;;;;;;5047513;28;20025;-81
2022/09/04 01:12:31;;;;;;;2.10;1.35;;;14.10;99.90;;;;;;5047408;28;20052;-80
2022/09/04 01:15:13;;;;;;;3.55;1.40;;;;;;;;;;5045474;28;20060;-82
2022/09/04 01:17:47;;;;;;;2.20;1.05;;;14.40;99.90;;;;;;5048692;28;20029;-82
2022/09/04 01:20:58;;;;;;;1.48;0.82;;;14.00;99.90;;;;;;5050601;28;20600;-81
2022/09/04 01:23:47;;;;;;;1.30;0.60;;;13.90;99.90;;;;;;5001110;28;20113;-82
2022/09/04 01:26:26;;;;;;;2.53;1.15;;;14.30;99.90;;;;;;5042947;28;20444;-82
2022/09/04 01:28:52;;;;;;;1.33;0.80;;;;;;;;;;5046871;28;20413;-82
2022/09/04 01:31:36;;;;;;;1.98;1.13;;;13.50;99.90;;;;;;5046907;28;20549;-81
2022/09/04 01:34:36;;;;;;;2.53;1.25;;;14.30;99.90;;;;;;5051726;28;20457;-82
2022/09/04 01:37:38;;;;;;;2.53;1.45;;;14.20;99.90;;;;;;5048664;28;20029;-81
2022/09/04 01:40:34;;;;;;;2.45;1.60;;;13.10;99.90;;;;;;5045311;28;20028;-81
2022/09/04 01:43:10;;;;;;;1.35;0.93;;;;;;;;;;5053565;28;20052;-80
2022/09/04 01:45:55;;;;;;;3.05;1.70;;;13.80;99.90;;;;;;5052644;28;20534;-81
2022/09/04 01:48:46;;;;;;;1.98;1.00;;;13.10;99.90;;;;;;5052138;28;20057;-81
2022/09/04 01:51:15;;;;;;;1.83;0.90;;;;;;;;;;5050217;28;20045;-81
2022/09/04 01:53:44;;;;;;;3.30;1.02;;;13.70;99.90;;;;;;5053110;28;20039;-82
2022/09/04 01:56:25;;;;;;;1.63;0.95;;;;;;;;;;5047105;28;20123;-81
2022/09/04 01:58:58;;;;;;;1.88;0.90;;;13.80;99.90;;;;;;5051595;28;20036;-81
2022/09/04 02:01:40;;;;;;;3.08;1.23;;;13.00;99.90;;;;;;5051958;28;20025;-82
2022/09/04 02:04:21;;;;;;;4.05;1.83;;;;;;;;;;5047941;28;20295;-81
2022/09/04 02:07:17;;;;;;;1.60;0.88;;;13.70;99.90;;;;;;5052500;28;20045;-81
2022/09/04 02:10:16;;;;;;;1.38;0.80;;;13.00;99.90;;;;;;5045257;28;20459;-81
2022/09/04 02:12:46;;;;;;;1.45;0.95;;;;;;;;;;5043678;28;20037;-81
2022/09/04 02:15:20;;;;;;;1.63;1.05;;;;;;;;;;5042833;28;20037;-81
2022/09/04 02:18:01;;;;;;;2.38;1.23;;;;;;;;;;5049763;28;20028;-81
2022/09/04 02:20:29;;;;;;;2.30;1.10;;;14.10;99.90;;;;;;5044058;28;20487;-82
2022/09/04 02:23:28;;;;;;;1.85;0.77;;;13.70;99.90;;;;;;5052843;28;20248;-82
2022/09/04 02:25:54;;;;;;;1.02;0.70;;;13.30;99.90;;;;;;5050381;28;20033;-82
2022/09/04 02:28:52;;;;;;;2.78;0.93;;;13.80;99.90;;;;;;5047564;28;20115;-81
2022/09/04 02:31:28;;;;;;;2.35;1.20;;;14.00;99.90;;;;;;5008209;28;20033;-81
2022/09/04 02:34:18;;;;;;;3.28;1.48;;;;;;;;;;5051213;28;20041;-82
2022/09/04 02:36:51;;;;;;;2.03;0.88;;;13.00;99.90;;;;;;5040999;28;20025;-81
2022/09/04 02:39:36;;;;;;;2.03;1.23;;;14.20;99.90;;;;;;5050430;28;20025;-82
2022/09/04 02:42:24;;;;;;;2.60;1.35;;;13.90;99.90;;;;;;5047099;28;20547;-82
2022/09/04 02:45:27;;;;;;;1.98;0.98;;;13.50;99.90;;;;;;5044902;28;20044;-81
2022/09/04 02:48:07;;;;;;;1.77;0.80;;;12.80;99.90;;;;;;5005428;28;20448;-82
2022/09/04 02:50:50;;;;;;;2.00;1.10;;;13.90;99.90;;;;;;5039677;28;20318;-82
2022/09/04 02:53:33;;;;;;;1.60;0.80;;;13.60;99.90;;;;;;5051143;28;20025;-83
2022/09/04 02:55:59;;;;;;;5.75;0.93;;;;;;;;;;5041601;28;20663;-82
2022/09/04 02:58:50;;;;;;;2.78;1.40;;;14.10;99.90;;;;;;5046449;28;20071;-82
2022/09/04 03:01:28;;;;;;;6.22;0.95;;;;;;;;;;5048896;28;20409;-81
2022/09/04 03:03:54;;;;;;;3.17;1.83;;;;;;;;;;5045797;28;20082;-81
2022/09/04 03:06:30;;;;;;;1.58;0.93;;;13.30;99.90;;;;;;5050056;28;20381;-83
2022/09/04 03:09:03;;;;;;;2.55;1.15;;;13.20;99.90;;;;;;5050570;28;20040;-82
2022/09/04 03:11:29;;;;;;;2.55;1.30;;;;;;;;;;5049800;28;20029;-81
2022/09/04 03:14:12;;;;;;;1.75;0.90;;;13.50;99.90;;;;;;5049091;28;20040;-81
2022/09/04 03:16:43;;;;;;;;;;;13.40;99.90;;;;;;5047251;28;20082;-81
2022/09/04 03:19:19;;;;;;;1.58;0.98;;;12.60;99.90;;;;;;5038804;28;19956;-81
2022/09/04 03:21:59;;;;;;;2.65;1.20;;;13.30;99.90;;;;;;5050067;28;20439;-81
2022/09/04 03:24:32;;;;;;;2.55;1.20;;;13.10;99.90;;;;;;5047885;28;20043;-81
2022/09/04 03:27:03;;;;;;;2.38;1.05;;;;;;;;;;5048719;28;20021;-82
2022/09/04 03:29:34;;;;;;;3.67;1.33;;;;;;;;;;5050360;28;20068;-81
2022/09/04 03:32:27;;;;;;;3.38;1.48;;;13.60;99.90;;;;;;5046399;28;20036;-81
2022/09/04 03:35:07;;;;;;;3.72;1.50;;;13.50;99.90;;;;;;5045499;28;20045;-81
2022/09/04 03:37:56;;;;;;;2.28;1.00;;;12.60;99.90;;;;;;5046230;28;20049;-82
2022/09/04 03:40:41;;;;;;;2.22;1.33;;;;;;;;;;5047858;28;20029;-81
2022/09/04 03:43:19;;;;;;;2.78;1.17;;;12.50;99.90;;;;;;5047533;28;20033;-81
2022/09/04 03:45:47;;;;;;;2.60;1.20;;;;;;;;;;5042731;28;20021;-81
2022/09/04 03:48:38;;;;;;;3.35;1.20;;;13.10;99.90;;;;;;5038646;28;20059;-80
2022/09/04 03:51:15;;;;;;;2.30;1.00;;;;;;;;;;5047421;28;20057;-81
2022/09/04 03:53:55;;;;;;;2.47;1.15;;;13.10;99.90;;;;;;5047680;28;20037;-81
2022/09/04 03:56:35;;;;;;;5.78;1.33;;;12.50;99.90;;;;;;5044876;28;20116;-81
2022/09/04 03:59:05;;;;;;;4.65;1.23;;;;;;;;;;5041070;28;20031;-81
2022/09/04 04:01:40;;;;;;;3.47;1.30;;;;;;;;;;5042299;28;20028;-80
2022/09/04 04:04:43;;;;;;;2.25;1.00;;;13.60;99.90;;;;;;5043540;28;20043;-80
2022/09/04 04:07:20;;;;;;;2.67;1.40;;;13.20;99.90;;;;;;5046087;28;20506;-82
2022/09/04 04:09:56;;;;;;;4.50;1.42;;;13.10;99.90;;;;;;5042949;28;20041;-80
2022/09/04 04:12:28;;;;;;;2.17;1.13;;;;;;;;;;5043093;28;20025;-81
2022/09/04 04:15:14;;;;;;;2.47;1.17;;;13.20;99.90;;;;;;5045120;28;20041;-81
2022/09/04 04:18:12;;;;;;;2.28;1.08;;;12.60;99.90;;;;;;5038363;28;20048;-81
2022/09/04 04:21:03;;;;;;;2.67;1.02;;;;;;;;;;5041364;28;20056;-80
2022/09/04 04:23:47;;;;;;;1.77;0.85;;;12.80;99.90;;;;;;5042195;28;20033;-80
2022/09/04 04:26:46;;;;;;;3.75;1.65;;;;;;;;;;5038927;28;20386;-81
2022/09/04 04:29:37;;;;;;;2.35;1.00;;;;;;;;;;5015058;28;20045;-81
2022/09/04 04:32:23;;;;;;;2.70;1.70;;;;;;;;;;5046858;28;20104;-81
2022/09/04 04:35:07;;;;;;;3.58;1.55;;;12.60;99.90;;;;;;5040940;28;20853;-81
2022/09/04 04:37:50;;;;;;;1.45;1.10;;;;;;;;;;5043301;28;20516;-81
2022/09/04 04:40:40;;;;;;;2.97;1.13;;;12.20;99.90;;;;;;5038236;28;20036;-80
2022/09/04 04:43:06;;;;;;;2.28;1.17;;;;;;;;;;5041946;28;20048;-80
2022/09/04 04:45:51;;;;;;;2.58;1.25;;;;;;;;;;5047731;28;20072;-80
2022/09/04 04:48:26;;;;;;;2.83;1.02;;;;;;;;;;5049204;28;20033;-81
2022/09/04 04:51:21;;;;;;;2.40;1.05;;;12.40;99.90;;;;;;5042760;28;20559;-80
2022/09/04 04:54:12;;;;;;;2.80;1.15;;;12.30;99.90;;;;;;5044730;28;20033;-81
2022/09/04 04:56:49;;;;;;;2.15;1.13;;;13.10;99.90;;;;;;5046364;28;20032;-83
2022/09/04 04:59:24;;;;;;;2.20;1.00;;;;;;;;;;5046617;28;20646;-82
2022/09/04 05:01:50;;;;;;;2.80;1.15;;;;;;;;;;5048899;28;20017;-82
2022/09/04 05:04:28;;;;;;;2.40;1.35;;;;;;;;;;5051507;28;20124;-81
2022/09/04 05:07:16;;;;;;;2.60;1.23;;;;;;;;;;5049414;28;20029;-80
2022/09/04 05:09:56;;;;;;;3.25;1.48;;;;;;;;;;5049448;28;20109;-81
2022/09/04 05:12:43;;;;;;;3.15;2.05;;;12.20;99.90;;;;;;5044066;28;20032;-82
2022/09/04 05:15:18;;;;;;;3.25;1.45;;;;;;;;;;5047105;28;20131;-81
2022/09/04 05:18:03;;;;;;;2.17;1.05;;;12.80;99.90;;;;;;5055207;28;20032;-81
2022/09/04 05:20:35;;;;;;;2.80;1.13;;;12.20;99.90;;;;;;5048685;28;20037;-81
2022/09/04 05:23:24;;;;;;;2.67;1.25;;;13.30;99.90;;;;;;5048016;28;20036;-81
2022/09/04 05:26:22;;;;;;;3.92;1.73;;;12.00;99.90;;;;;;5052708;28;20195;-81
2022/09/04 05:28:55;;;;;;;2.05;1.23;;;13.20;99.90;;;;;;5041618;28;20040;-80
2022/09/04 05:31:40;;;;;;;2.58;1.38;;;;;;;;;;5046226;28;20021;-81
2022/09/04 05:34:19;;;;;;;1.67;0.77;;;13.30;99.90;;;;;;5047165;28;20041;-81
2022/09/04 05:36:50;;;;;;;2.35;1.00;;;13.30;99.90;;;;;;5045338;28;20510;-81
2022/09/04 05:39:29;;;;;;;2.95;0.93;;;13.40;99.90;;;;;;5052722;28;20036;-80
2022/09/04 05:42:03;;;;;;;3.85;1.80;;;12.90;99.90;;;;;;5046354;28;20053;-81
2022/09/04 05:44:29;;;;;;;3.15;1.50;;;;;;;;;;5044808;28;20037;-81
2022/09/04 05:47:21;;;;;;;2.80;1.10;;;13.80;99.90;;;;;;5041219;28;20091;-81
2022/09/04 05:50:32;;;;;;;3.38;1.40;;;13.70;99.90;;;;;;5047047;28;20033;-81
2022/09/04 05:53:06;;;;;;;6.07;1.77;;;12.90;99.90;;;;;;5018627;28;20033;-82
2022/09/04 05:56:13;;;;;;;2.17;1.10;;;13.70;99.90;;;;;;5048451;28;20041;-81
2022/09/04 05:59:03;;;;;;;3.28;1.10;;;14.00;99.90;;;;;;5017169;28;20029;-81
2022/09/04 06:01:37;;;;;;;2.42;1.08;;;14.10;99.90;;;;;;5040305;28;20060;-80
2022/09/04 06:04:03;;;;;;;4.22;1.73;;;;;;;;;;5045267;28;20033;-80
2022/09/04 06:07:07;;;;;;;2.25;1.02;;;14.30;99.90;;;;;;5046224;28;20102;-80
2022/09/04 06:09:50;;;;;;;4.18;1.17;;;14.10;99.90;;;;;;5044254;28;20490;-80
2022/09/04 06:12:45;;;;;;;4.13;1.50;;;14.20;99.90;;;;;;5044340;28;20041;-80
2022/09/04 06:15:35;;;;;;;4.03;1.95;;;14.40;99.90;;;;;;5045449;28;20041;-82
2022/09/04 06:18:37;;;;;;;3.25;1.77;;;14.20;99.90;;;;;;5049684;28;20025;-80
2022/09/04 06:21:14;;;;;;;2.72;1.48;;;;;;;;;;5046984;28;20040;-81
2022/09/04 06:24:00;;;;;;;2.20;1.05;;;14.80;99.90;;;;;;5048532;28;20075;-81
2022/09/04 06:26:31;;;;;;;2.47;1.40;;;14.80;99.90;;;;;;5047750;28;20029;-80
2022/09/04 06:29:13;;;;;;;3.22;1.30;;;14.60;99.90;;;;;;5049816;28;20032;-80
2022/09/04 06:32:12;;;;;;;2.17;1.45;;;14.70;99.90;;;;;;5047947;28;20065;-80
2022/09/04 06:35:08;;;;;;;1.58;1.00;;;15.10;99.90;;;;;;5042444;28;20524;-81
2022/09/04 06:37:40;;;;;;;1.55;0.80;;;15.00;99.90;;;;;;5044114;28;20032;-81
2022/09/04 06:40:20;;;;;;;1.83;1.10;;;15.00;99.90;;;;;;5049390;28;20040;-80
2022/09/04 06:42:55;;;;;;;3.72;1.50;;;15.80;99.90;;;;;;5046626;28;20032;-82
2022/09/04 06:45:57;;;;;;;5.22;1.50;;;15.70;99.90;;;;;;5042193;28;20028;-82
2022/09/04 06:48:44;;;;;;;6.35;1.88;;;15.90;99.90;;;;;;5050175;28;20089;-80
2022/09/04 06:51:22;;;;;;;3.08;1.48;;;15.90;99.90;;;;;;5039483;28;20047;-80
2022/09/04 06:54:07;;;;;;;3.35;1.90;;;15.40;99.90;;;;;;5051302;28;20041;-82
2022/09/04 06:57:02;;;;;;;6.45;2.20;;;14.90;99.90;;;;;;5042870;28;21623;-80
2022/09/04 06:59:50;;;;;;;3.15;1.60;;;15.40;99.90;;;;;;5041788;28;20026;-80
2022/09/04 07:02:35;;;;;;;3.65;1.85;;;16.10;99.90;;;;;;5048318;28;20033;-81
2022/09/04 07:05:15;;;;;;;3.35;1.55;;;15.00;99.90;;;;;;5048543;28;20027;-80
2022/09/04 07:07:54;;;;;;;2.90;1.42;;;15.60;99.90;;;;;;5049189;28;20056;-80
2022/09/04 07:10:24;;;;;;;2.95;1.40;;;15.40;99.90;;;;;;5046815;28;20079;-81
2022/09/04 07:13:28;;;;;;;3.40;1.67;;;15.80;99.90;;;;;;5046089;28;20485;-81
2022/09/04 07:15:55;;;;;;;2.38;1.25;;;16.40;99.90;;;;;;5043439;28;20073;-82
2022/09/04 07:18:21;;;;;;;2.80;1.38;;;;;;;;;;5048030;28;20045;-80
2022/09/04 07:21:28;;;;;;;2.55;1.60;;;16.60;99.90;;;;;;5045509;28;20032;-81
2022/09/04 07:24:05;;;;;;;2.78;1.35;;;16.40;99.90;;;;;;5037438;28;20568;-80
2022/09/04 07:26:52;;;;;;;3.47;1.77;;;15.80;99.90;;;;;;5043260;28;20036;-81
2022/09/04 07:29:36;;;;;;;4.10;1.92;;;16.30;99.90;;;;;;5044033;28;20087;-81
2022/09/04 07:32:35;;;;;;;2.95;1.77;;;17.40;99.90;;;;;;5046523;28;20064;-80
2022/09/04 07:35:09;;;;;;;3.35;1.60;;;17.00;99.90;;;;;;5042852;28;20029;-81
2022/09/04 07:38:05;;;;;;;2.10;1.17;;;17.00;99.90;;;;;;5042408;28;20123;-81
2022/09/04 07:40:50;;;;;;;2.65;1.35;;;17.70;99.90;;;;;;5043500;28;20056;-81
2022/09/04 07:43:33;;;;;;;2.90;1.50;;;17.20;99.90;;;;;;5044811;28;20064;-81
2022/09/04 07:46:13;;;;;;;3.25;0.90;;;18.20;99.90;;;;;;5047220;28;20092;-81
2022/09/04 07:49:08;;;;;;;2.47;1.02;;;18.50;99.90;;;;;;5037933;28;20040;-80
2022/09/04 07:51:41;;;;;;;1.90;1.00;;;18.20;99.90;;;;;;5045811;28;20036;-80
2022/09/04 07:54:17;;;;;;;2.03;1.05;;;18.30;99.90;;;;;;5040670;28;20041;-81
2022/09/04 07:56:58;;;;;;;1.67;0.82;;;18.20;99.90;;;;;;5042795;28;20025;-80
2022/09/04 07:59:32;;;;;;;2.33;0.90;;;18.30;99.90;;;;;;5048219;28;20048;-81
2022/09/04 08:02:04;;;;;;;4.75;1.70;;;18.50;99.90;;;;;;5037711;28;20026;-80
2022/09/04 08:05:08;;;;;;;3.17;0.88;;;19.00;99.90;;;;;;5041174;28;20025;-80
2022/09/04 08:07:36;;;;;;;2.55;1.00;;;19.30;99.90;;;;;;5014675;28;20646;-81
2022/09/04 08:10:30;;;;;;;2.00;0.85;;;19.20;99.90;;;;;;5047502;28;20524;-80
2022/09/04 08:12:55;;;;;;;;;;;20.20;99.90;;;;;;5040224;28;20083;-82
2022/09/04 08:15:27;;;;;;;1.42;0.68;;;19.60;99.90;;;;;;5043669;28;19924;-81
2022/09/04 08:18:07;;;;;;;1.88;0.90;;;19.90;99.90;;;;;;5039086;28;20027;-82
2022/09/04 08:20:48;;;;;;;2.00;0.70;;;20.30;99.90;;;;;;5041721;28;20516;-81
2022/09/04 08:23:39;;;;;;;5.57;0.85;;;20.20;99.90;;;;;;5042256;28;20127;-80
2022/09/04 08:26:13;;;;;;;1.98;0.77;;;20.40;99.90;;;;;;5046894;28;20025;-82
2022/09/04 08:28:44;;;;;;;3.05;0.90;;;20.60;99.90;;;;;;5048235;28;20108;-81
2022/09/04 08:31:31;;;;;;;1.23;0.77;;;21.50;99.90;;;;;;5045026;28;20033;-81
2022/09/04 08:34:26;;;;;;;1.95;0.90;;;20.70;99.90;;;;;;5051183;28;20051;-80
2022/09/04 08:37:16;;;;;;;1.40;0.77;;;21.80;99.90;;;;;;5048804;28;20017;-81
2022/09/04 08:39:42;;;;;;;2.22;0.80;;;;;;;;;;5050025;28;20037;-81
2022/09/04 08:42:08;;;;;;;2.20;0.90;;;;;;;;;;5049771;28;20603;-80
2022/09/04 08:45:09;;;;;;;1.92;0.98;;;23.00;99.90;;;;;;5052225;28;20119;-81
2022/09/04 08:47:50;;;;;;;1.55;0.77;;;25.50;99.90;;;;;;5044323;28;20029;-81
2022/09/04 08:50:51;;;;;;;1.20;0.75;;;26.90;99.60;;;;;;5043185;28;20310;-81
2022/09/04 08:53:36;;;;;;;0.63;0.40;;;29.30;99.90;;;;;;5049085;28;20036;-81
2022/09/04 08:56:36;;;;;;;1.13;0.68;;;30.40;96.70;;;;;;5053297;28;20260;-80
2022/09/04 08:59:02;;;;;;;2.10;0.60;;;;;;;;;;5041575;28;20033;-81
2022/09/04 09:01:54;;;;;;;2.35;0.43;;;29.70;80.90;;;;;;5043486;28;20142;-80
2022/09/04 09:04:58;;;;;;;1.38;0.60;;;28.80;91.20;;;;;;5030933;28;20052;-82
2022/09/04 09:07:33;;;;;;;2.60;0.70;;;27.60;86.80;;;;;;5050344;28;20071;-81
2022/09/04 09:09:58;;;;;;;1.15;0.68;;;26.40;94.90;;;;;;5045726;28;20025;-81
2022/09/04 09:12:55;;;;;;;1.15;0.50;;;25.70;90.80;;;;;;5047791;28;20029;-80
2022/09/04 09:15:36;;;;;;;1.20;0.60;;;25.70;91.30;;;;;;5048909;28;20460;-80
2022/09/04 09:18:36;;;;;;;3.15;0.85;;;25.80;91.60;;;;;;5049311;28;20029;-80
2022/09/04 09:21:40;;;;;;;2.03;0.75;;;26.70;92.20;;;;;;5051845;28;20032;-80
2022/09/04 09:24:25;;;;;;;1.17;0.60;;;26.10;92.20;;;;;;5052409;28;20084;-82
2022/09/04 09:26:51;;;;;;;0.70;0.38;;;;;;;;;;5054485;28;20029;-82
2022/09/04 09:29:35;;;;;;;1.40;0.50;;;25.90;92.50;;;;;;5051849;28;20503;-80
2022/09/04 09:32:10;;;;;;;0.98;0.60;;;24.60;93.70;;;;;;5050728;28;20029;-82
2022/09/04 09:35:20;;;;;;;1.77;0.50;;;24.30;94.10;;;;;;5047981;28;20044;-81
2022/09/04 09:38:15;;;;;;;1.40;0.70;;;24.30;95.80;;;;;;5049492;28;20029;-81
2022/09/04 09:40:59;;;;;;;1.13;0.70;;;23.40;96.10;;;;;;5047041;28;20047;-80
2022/09/04 09:44:10;;;;;;;2.92;0.50;;;22.70;99.90;;;;;;5051980;28;20025;-82
2022/09/04 09:47:00;;;;;;;0.68;0.40;;;23.20;97.90;;;;;;5042529;28;20025;-80
2022/09/04 09:49:54;;;;;;;1.05;0.60;;;22.50;98.90;;;;;;5051077;28;20040;-81
2022/09/04 09:52:37;;;;;;;;;;;22.90;99.30;;;;;;5045544;28;20037;-81
2022/09/04 09:55:24;;;;;;;2.38;0.60;;;22.50;99.90;;;;;;5045821;28;19928;-81
2022/09/04 09:57:49;;;;;;;1.30;0.50;;;22.40;99.90;;;;;;5049106;28;20111;-81
2022/09/04 10:00:17;;;;;;;1.98;0.70;;;22.50;99.90;;;;;;5048564;28;20163;-80
2022/09/04 10:02:43;;;;;;;0.95;0.43;;;;;;;;;;5046589;28;20030;-80
2022/09/04 10:05:30;;;;;;;3.47;0.50;;;23.20;98.70;;;;;;5046443;28;20037;-81
2022/09/04 10:08:39;;;;;;;1.83;0.43;;;23.50;98.40;;;;;;5041176;28;20108;-81
2022/09/04 10:11:50;;;;;;;1.50;0.75;;;23.90;96.70;;;;;;5042884;28;20025;-80
2022/09/04 10:14:15;;;;;;;1.00;0.47;;;;;;;;;;5048072;28;20044;-80
2022/09/04 10:17:18;;;;;;;1.00;0.40;;;25.10;96.70;;;;;;5044552;28;20037;-80
2022/09/04 10:20:21;;;;;;;0.65;0.32;;;25.40;93.60;;;;;;5043905;28;20029;-82
2022/09/04 10:23:04;;;;;;;0.75;0.60;;;25.60;93.30;;;;;;5040139;28;20032;-81
2022/09/04 10:25:56;;;;;;;0.52;0.32;;;25.90;99.10;;;;;;5050380;28;20115;-82
2022/09/04 10:28:49;;;;;;;1.40;0.65;;;25.70;92.30;;;;;;5046675;28;20027;-81
2022/09/04 10:31:38;;;;;;;2.47;0.63;;;26.40;92.00;;;;;;5039860;28;20044;-81
2022/09/04 10:34:32;;;;;;;0.93;0.40;;;25.80;92.20;;;;;;5046211;28;20677;-80
2022/09/04 10:37:27;;;;;;;0.50;0.20;;;25.70;93.00;;;;;;5050411;28;20024;-81
2022/09/04 10:43:25;;;;;;;3.35;0.60;;;25.10;92.40;;;;;;5047860;28;20047;-80
2022/09/04 10:45:57;;;;;;;;;;;25.10;92.80;;;;;;5046912;28;20025;-81
2022/09/04 10:48:42;;;;;;;3.00;0.20;;;24.70;94.10;;;;;;5044182;28;19918;-80
2022/09/04 10:51:42;;;;;;;0.93;0.43;;;24.60;92.50;;;;;;5043403;28;20060;-83
2022/09/04 10:54:34;;;;;;;0.80;0.50;;;24.50;93.10;;;;;;5044772;28;20044;-80
2022/09/04 10:57:24;;;;;;;1.33;0.60;;;24.40;93.10;;;;;;5040747;28;20033;-82
2022/09/04 11:00:05;;;;;;;0.70;0.57;;;25.10;98.20;;;;;;5043777;28;20116;-82
2022/09/04 11:02:31;;;;;;;2.00;0.47;;;;;;;;;;5046627;28;20029;-81
2022/09/04 11:04:58;;;;;;;0.47;0.30;;;;;;;;;;5043899;28;20416;-82
2022/09/04 11:07:51;;;;;;;1.05;0.40;;;24.50;93.60;;;;;;5047878;28;20056;-81
2022/09/04 11:10:33;;;;;;;0.90;0.43;;;24.50;93.00;;;;;;5042687;28;20118;-81
2022/09/04 11:13:10;;;;;;;1.17;0.40;;;24.60;92.80;;;;;;5040055;28;20032;-81
2022/09/04 11:15:51;;;;;;;1.23;0.40;;;24.90;93.20;;;;;;5047377;28;20444;-84
2022/09/04 11:18:18;;;;;;;0.88;0.50;;;;;;;;;;5046337;28;20412;-82
2022/09/04 11:21:21;;;;;;;1.23;0.70;;;24.40;92.60;;;;;;5044994;28;20032;-81
2022/09/04 11:23:47;;;;;;;2.28;0.43;;;;;;;;;;5041697;28;20507;-80
2022/09/04 11:27:00;;;;;;;0.80;0.45;;;24.80;92.70;;;;;;5053287;28;20162;-81
2022/09/04 11:29:40;;;;;;;1.42;0.50;;;24.20;98.00;;;;;;5056003;28;20025;-80
2022/09/04 11:32:30;;;;;;;2.17;0.57;;;24.80;92.10;;;;;;5046702;28;20029;-81
2022/09/04 11:34:56;;;;;;;0.57;0.30;;;;;;;;;;5047138;28;20063;-81
2022/09/04 11:37:42;;;;;;;1.27;0.47;;;24.80;92.00;;;;;;5045380;28;20025;-81
2022/09/04 11:40:32;;;;;;;1.02;0.50;;;24.90;91.90;;;;;;5043280;28;20032;-81
2022/09/04 11:42:58;;;;;;;1.73;0.50;;;;;;;;;;5044545;28;20026;-81
2022/09/04 11:45:52;;;;;;;1.13;0.47;;;24.90;91.60;;;;;;5049623;28;20286;-83
2022/09/04 11:48:48;;;;;;;0.98;0.47;;;24.80;91.70;;;;;;5048804;28;20021;-82
2022/09/04 11:51:44;;;;;;;0.22;0.10;;;25.20;91.90;;;;;;5041620;28;20034;-82
2022/09/04 11:54:10;;;;;;;1.20;0.30;;;;;;;;;;5044503;28;20127;-81
2022/09/04 11:57:01;;;;;;;0.88;0.40;;;25.40;90.90;;;;;;5044123;28;20117;-81
2022/09/04 11:59:34;;;;;;;2.50;0.50;;;25.60;93.30;;;;;;5047130;28;20032;-81
2022/09/04 12:02:18;;;;;;;0.95;0.30;;;26.00;90.00;;;;;;5042705;28;20151;-82
2022/09/04 12:05:10;;;;;;;0.75;0.30;;;26.00;91.20;;;;;;5045832;28;20025;-82
2022/09/04 12:08:03;;;;;;;2.55;0.50;;;26.30;90.00;;;;;;5049150;28;20032;-81
2022/09/04 12:10:51;;;;;;;0.45;0.25;;;25.80;92.80;;;;;;5047242;28;20037;-83
2022/09/04 12:13:46;;;;;;;0.85;0.40;;;26.70;89.00;;;;;;5044674;28;20037;-82
2022/09/04 12:16:40;;;;;;;0.73;0.28;;;26.90;88.70;;;;;;5041939;28;20045;-81
2022/09/04 12:19:38;;;;;;;0.90;0.50;;;26.40;87.60;;;;;;5038751;28;20040;-82
2022/09/04 12:22:24;;;;;;;2.05;0.47;;;26.10;94.50;;;;;;5043401;28;20037;-81
2022/09/04 12:25:22;;;;;;;3.83;0.30;;;26.20;86.20;;;;;;5044423;28;20021;-81
2022/09/04 12:28:18;;;;;;;0.77;0.52;;;27.00;87.20;;;;;;5041664;28;20052;-83
2022/09/04 12:31:19;;;;;;;0.80;0.40;;;27.00;85.80;;;;;;5049009;28;20021;-82
2022/09/04 12:34:07;;;;;;;0.70;0.20;;;28.00;94.00;;;;;;5013929;28;20037;-81
2022/09/04 12:36:33;;;;;;;0.47;0.40;;;;;;;;;;5052071;28;20029;-81
2022/09/04 12:39:17;;;;;;;1.30;0.22;;;27.90;80.00;;;;;;5047014;28;20044;-82
2022/09/04 12:42:06;;;;;;;0.20;0.20;;;27.10;88.70;;;;;;5039265;28;20025;-82
2022/09/04 12:45:04;;;;;;;0.98;0.20;;;27.70;90.00;;;;;;5033749;28;20466;-81
2022/09/04 12:47:44;;;;;;;0.30;0.10;;;27.50;79.60;;;;;;5043704;28;20102;-82
2022/09/04 12:50:35;;;;;;;0.85;0.30;;;27.80;74.10;;;;;;5048739;28;20037;-81
2022/09/04 12:53:30;;;;;;;0.40;0.30;;;27.10;76.00;;;;;;5048333;28;20049;-81
2022/09/04 12:56:18;;;;;;;0.25;0.10;;;26.90;80.10;;;;;;5046514;28;20049;-83
2022/09/04 12:58:58;;;;;;;0.40;0.10;;;27.30;74.80;;;;;;5048958;28;20025;-82
2022/09/04 13:01:42;;;;;;;1.23;0.50;;;26.80;73.80;;;;;;5043034;28;20503;-80
2022/09/04 13:04:26;;;;;;;3.28;1.33;;;27.80;86.90;;;;;;5044435;28;20029;-82
2022/09/04 13:07:07;;;;;;;23.50;10.30;;;26.60;72.90;;;;;;5042839;28;20025;-83
2022/09/04 13:09:58;;;;;;;1.70;0.88;;;26.60;71.90;;;;;;5045244;28;20078;-81
2022/09/04 13:12:33;;;;;;;1.08;0.40;;;27.50;78.10;;;;;;5044442;28;20131;-82
2022/09/04 13:15:25;;;;;;;0.70;0.25;;;26.70;75.80;;;;;;5059338;28;20038;-82
2022/09/04 13:18:26;;;;;;;0.63;0.20;;;27.10;75.80;;;;;;5048121;28;20090;-83
2022/09/04 13:21:22;;;;;;;0.32;0.20;;;26.70;84.50;;;;;;5040804;28;20040;-81
2022/09/04 13:24:08;;;;;;;0.28;0.10;;;27.00;74.80;;;;;;5036194;28;20029;-82
2022/09/04 13:26:34;;;;;;;0.65;0.20;;;;;;;;;;5042471;28;20037;-82
2022/09/04 13:29:11;;;;;;;0.50;0.20;;;27.30;74.80;;;;;;5051467;28;20033;-81
2022/09/04 13:31:48;;;;;;;0.65;0.20;;;26.40;75.20;;;;;;5047653;28;20431;-82
2022/09/04 13:34:29;;;;;;;1.52;0.30;;;26.10;76.40;;;;;;5044727;28;20045;-82
2022/09/04 13:37:44;;;;;;;0.30;0.20;;;25.90;79.30;;;;;;5046553;28;20029;-81
2022/09/04 13:40:29;;;;;;;1.60;0.40;;;25.90;90.00;;;;;;5045431;28;20041;-82
2022/09/04 13:43:12;;;;;;;0.40;0.10;;;26.20;85.70;;;;;;5022185;28;20087;-82
2022/09/04 13:45:52;;;;;;;0.80;0.20;;;26.30;77.00;;;;;;5046020;28;20033;-82
2022/09/04 13:48:20;;;;;;;1.10;0.32;;;26.60;77.40;;;;;;5051515;28;20120;-81
2022/09/04 13:50:54;;;;;;;0.40;0.30;;;26.00;77.20;;;;;;5046672;28;20032;-82
2022/09/04 13:53:20;;;;;;;0.32;0.20;;;;;;;;;;5050714;28;20386;-82
2022/09/04 13:55:53;;;;;;;0.65;0.22;;;26.30;78.40;;;;;;5046046;28;20033;-83
2022/09/04 13:58:22;;;;;;;0.50;0.22;;;26.00;77.90;;;;;;5051616;28;20025;-81
2022/09/04 14:00:59;;;;;;;3.05;0.40;;;26.30;76.40;;;;;;5045988;28;20454;-80
2022/09/04 14:03:25;;;;;;;2.10;0.20;;;;;;;;;;5047749;28;20036;-82
2022/09/04 14:05:51;;;;;;;0.40;0.20;;;26.90;73.50;;;;;;5042190;28;20100;-81
2022/09/04 14:08:17;;;;;;;0.43;0.20;;;;;;;;;;5049920;28;20021;-81
2022/09/04 14:11:10;;;;;;;0.38;0.20;;;26.30;72.50;;;;;;5046432;28;20037;-81
2022/09/04 14:13:36;;;;;;;0.40;0.20;;;26.90;79.80;;;;;;5046127;28;20033;-81
2022/09/04 14:16:07;;;;;;;0.40;0.28;;;26.60;80.30;;;;;;5036197;28;20029;-81
2022/09/04 14:18:54;;;;;;;1.92;0.40;;;27.40;70.20;;;;;;5043303;28;20083;-83
2022/09/04 14:21:44;;;;;;;0.22;0.20;;;27.90;76.00;;;;;;5050313;28;20389;-82
2022/09/04 14:24:13;;;;;;;0.88;0.20;;;28.00;76.30;;;;;;5047585;28;20025;-81
2022/09/04 14:26:54;;;;;;;0.85;0.30;;;26.90;67.80;;;;;;5051028;28;20481;-82
2022/09/04 14:29:20;;;;;;;0.60;0.20;;;;;;;;;;5040915;28;20037;-82
2022/09/04 14:32:15;;;;;;;0.75;0.30;;;27.50;68.10;;;;;;5050376;28;20033;-81
2022/09/04 14:34:49;;;;;;;0.73;0.30;;;27.30;68.00;;;;;;5041589;28;20167;-82
2022/09/04 14:37:52;;;;;;;0.20;0.13;;;27.50;71.30;;;;;;5053407;28;20025;-81
2022/09/04 14:40:50;;;;;;;0.70;0.25;;;27.30;66.70;;;;;;5041435;28;20516;-81